Accueil
METAR-TAF:

METAR-TAF

Aéroports :

Aéroport de Luxembourg-Findel

Luxembourg, Luxembourg

latitude: 49-37N, longitude: 006-13E, altitude: 376 m

Observation

Le bulletin a été fait il y a 15 minutes, à 10:20 UTC
Vent 12 kt de nord-est
Température 13°C
Humidité 72%
Pression 1030 hPa
Visibilité: 8000 m

METAR: ELLX 201020Z 04012KT 8000 NSC 13/08 Q1030 NOSIG

Heure: 12:35 (10:35 UTC)

Prévision

Le bulletin a été fait il y a 5 heures et 35 minutes, à 05:00 UTC
Prévision valable du 20 à 06 UTC au 21 à 12 UTC
Vent 9 kt de nord/nord-est
Visibilité: 3000 m
brume
Evoluant progressivement
du 20 à 07 UTC au 20 à 09 UTC
Visibilité 10 km ou plus
pas de nuages en-dessous de 1500 mètres et pas de cumulonimbus.
Probabilité 30% :
Temporairement
du 21 à 03 UTC au 21 à 08 UTC
Visibilité: 3000 m
brume

TAF: ELLX 200500Z 2006/2112 02009KT 3000 BR NSC BECMG 2007/2009 CAVOK PROB30 TEMPO 2103/2108 3000 BR

Observations et prévisions météorologiques de plus de 4000 aéroports (messages METAR et TAF).

Les stations disponibles sont représentées par des disques jaunes et rouges sur la carte.

Passer la souris dessus pour voir le nom de la station.

Cliquer dessus pour voir les observations et prévisions météorologiques.

Pour changer de carte: cliquez sur les boutons verts avec une croix noire pour zoomer, sur le bouton vert avec un tiret pour effectuer un zoom arrière, ou sur les flèches vertes pour les cartes adjacentes.


METAR-TAF: